sensor_id;sensor_type;location;lat;lon;timestamp;P1;durP1;ratioP1;P2;durP2;ratioP2
19547;SDS011;9919;58.014;11.826;2023-02-14T00:00:32;0.93;;;0.88;;
19547;SDS011;9919;58.014;11.826;2023-02-14T00:02:34;1.23;;;0.90;;
19547;SDS011;9919;58.014;11.826;2023-02-14T00:04:35;1.85;;;1.20;;
19547;SDS011;9919;58.014;11.826;2023-02-14T00:06:43;1.23;;;0.82;;
19547;SDS011;9919;58.014;11.826;2023-02-14T00:08:45;1.67;;;1.15;;
19547;SDS011;9919;58.014;11.826;2023-02-14T00:10:46;1.63;;;0.88;;
19547;SDS011;9919;58.014;11.826;2023-02-14T00:12:47;1.15;;;1.15;;
19547;SDS011;9919;58.014;11.826;2023-02-14T00:14:49;0.82;;;0.82;;
19547;SDS011;9919;58.014;11.826;2023-02-14T00:17:09;3.85;;;1.13;;
19547;SDS011;9919;58.014;11.826;2023-02-14T00:19:11;0.95;;;0.88;;
19547;SDS011;9919;58.014;11.826;2023-02-14T00:21:13;1.23;;;1.13;;
19547;SDS011;9919;58.014;11.826;2023-02-14T00:23:14;2.33;;;1.20;;
19547;SDS011;9919;58.014;11.826;2023-02-14T09:01:42;1.35;;;1.25;;
19547;SDS011;9919;58.014;11.826;2023-02-14T09:03:43;1.00;;;1.00;;
19547;SDS011;9919;58.014;11.826;2023-02-14T09:05:45;1.48;;;1.38;;
19547;SDS011;9919;58.014;11.826;2023-02-14T09:07:46;0.85;;;0.85;;
19547;SDS011;9919;58.014;11.826;2023-02-14T09:09:48;1.23;;;1.15;;
19547;SDS011;9919;58.014;11.826;2023-02-14T09:11:49;1.08;;;1.08;;
19547;SDS011;9919;58.014;11.826;2023-02-14T09:13:51;0.90;;;0.90;;
19547;SDS011;9919;58.014;11.826;2023-02-14T09:15:53;1.33;;;1.33;;
19547;SDS011;9919;58.014;11.826;2023-02-14T09:17:54;1.17;;;1.17;;
19547;SDS011;9919;58.014;11.826;2023-02-14T09:19:55;1.23;;;1.20;;
19547;SDS011;9919;58.014;11.826;2023-02-14T09:21:57;1.20;;;0.93;;
19547;SDS011;9919;58.014;11.826;2023-02-14T09:23:59;1.17;;;1.08;;
19547;SDS011;9919;58.014;11.826;2023-02-14T09:26:01;1.17;;;1.08;;
19547;SDS011;9919;58.014;11.826;2023-02-14T09:28:04;1.35;;;1.17;;
19547;SDS011;9919;58.014;11.826;2023-02-14T09:30:06;0.90;;;0.90;;
19547;SDS011;9919;58.014;11.826;2023-02-14T09:36:30;1.20;;;1.20;;
19547;SDS011;9919;58.014;11.826;2023-02-14T09:38:50;0.82;;;0.80;;
19547;SDS011;9919;58.014;11.826;2023-02-14T09:40:52;1.08;;;1.08;;
19547;SDS011;9919;58.014;11.826;2023-02-14T12:03:59;0.82;;;0.82;;
19547;SDS011;9919;58.014;11.826;2023-02-14T12:06:02;1.45;;;1.08;;
19547;SDS011;9919;58.014;11.826;2023-02-14T12:08:06;1.48;;;0.88;;
19547;SDS011;9919;58.014;11.826;2023-02-14T12:12:22;0.80;;;0.80;;
19547;SDS011;9919;58.014;11.826;2023-02-14T12:14:27;0.77;;;0.77;;
19547;SDS011;9919;58.014;11.826;2023-02-14T12:16:45;2.05;;;1.15;;
19547;SDS011;9919;58.014;11.826;2023-02-14T12:19:17;0.95;;;0.95;;
19547;SDS011;9919;58.014;11.826;2023-02-14T12:25:47;1.73;;;0.93;;
19547;SDS011;9919;58.014;11.826;2023-02-14T12:28:05;1.00;;;1.00;;
19547;SDS011;9919;58.014;11.826;2023-02-14T12:30:17;0.80;;;0.80;;
19547;SDS011;9919;58.014;11.826;2023-02-14T12:32:21;0.77;;;0.77;;
19547;SDS011;9919;58.014;11.826;2023-02-14T12:34:23;0.85;;;0.85;;
19547;SDS011;9919;58.014;11.826;2023-02-14T12:36:32;1.58;;;1.17;;
19547;SDS011;9919;58.014;11.826;2023-02-14T12:46:33;0.70;;;0.70;;
19547;SDS011;9919;58.014;11.826;2023-02-14T12:59:42;0.75;;;0.75;;
19547;SDS011;9919;58.014;11.826;2023-02-14T13:06:57;1.10;;;1.00;;
19547;SDS011;9919;58.014;11.826;2023-02-14T13:13:48;0.65;;;0.52;;
19547;SDS011;9919;58.014;11.826;2023-02-14T13:21:06;1.00;;;1.00;;
19547;SDS011;9919;58.014;11.826;2023-02-14T13:23:14;0.80;;;0.80;;
19547;SDS011;9919;58.014;11.826;2023-02-14T13:25:35;0.70;;;0.70;;
19547;SDS011;9919;58.014;11.826;2023-02-14T13:27:41;0.95;;;0.90;;
19547;SDS011;9919;58.014;11.826;2023-02-14T13:30:05;0.98;;;0.95;;
19547;SDS011;9919;58.014;11.826;2023-02-14T13:32:05;1.42;;;1.35;;
19547;SDS011;9919;58.014;11.826;2023-02-14T13:36:26;0.95;;;0.75;;
19547;SDS011;9919;58.014;11.826;2023-02-14T13:38:28;2.53;;;1.10;;
19547;SDS011;9919;58.014;11.826;2023-02-14T13:40:30;0.85;;;0.85;;
19547;SDS011;9919;58.014;11.826;2023-02-14T13:44:48;2.15;;;0.70;;
19547;SDS011;9919;58.014;11.826;2023-02-14T13:46:51;0.50;;;0.50;;
19547;SDS011;9919;58.014;11.826;2023-02-14T13:51:44;3.08;;;0.93;;
19547;SDS011;9919;58.014;11.826;2023-02-14T13:53:47;0.70;;;0.70;;
19547;SDS011;9919;58.014;11.826;2023-02-14T13:55:50;0.70;;;0.70;;
19547;SDS011;9919;58.014;11.826;2023-02-14T13:58:02;1.50;;;1.00;;
19547;SDS011;9919;58.014;11.826;2023-02-14T14:06:29;1.25;;;1.15;;
19547;SDS011;9919;58.014;11.826;2023-02-14T14:08:51;8.60;;;1.60;;
19547;SDS011;9919;58.014;11.826;2023-02-14T14:17:21;1.85;;;0.90;;
19547;SDS011;9919;58.014;11.826;2023-02-14T14:23:36;0.90;;;0.90;;
19547;SDS011;9919;58.014;11.826;2023-02-14T14:25:38;4.45;;;1.13;;
19547;SDS011;9919;58.014;11.826;2023-02-14T14:27:41;5.80;;;1.10;;
19547;SDS011;9919;58.014;11.826;2023-02-14T14:29:46;1.75;;;1.10;;
19547;SDS011;9919;58.014;11.826;2023-02-14T14:31:49;1.50;;;0.85;;
19547;SDS011;9919;58.014;11.826;2023-02-14T14:33:58;0.77;;;0.77;;
19547;SDS011;9919;58.014;11.826;2023-02-14T14:36:03;1.23;;;1.13;;
19547;SDS011;9919;58.014;11.826;2023-02-14T14:38:11;1.05;;;1.02;;
19547;SDS011;9919;58.014;11.826;2023-02-14T14:40:18;2.53;;;1.02;;
19547;SDS011;9919;58.014;11.826;2023-02-14T14:42:27;1.58;;;1.13;;
19547;SDS011;9919;58.014;11.826;2023-02-14T14:44:33;2.25;;;1.20;;
19547;SDS011;9919;58.014;11.826;2023-02-14T14:46:35;2.47;;;1.30;;
19547;SDS011;9919;58.014;11.826;2023-02-14T14:48:38;4.15;;;1.02;;
19547;SDS011;9919;58.014;11.826;2023-02-14T14:50:43;1.13;;;0.80;;
19547;SDS011;9919;58.014;11.826;2023-02-14T14:52:47;1.50;;;1.10;;
19547;SDS011;9919;58.014;11.826;2023-02-14T14:54:50;0.90;;;0.90;;
19547;SDS011;9919;58.014;11.826;2023-02-14T14:56:56;1.13;;;1.02;;
19547;SDS011;9919;58.014;11.826;2023-02-14T14:59:17;1.27;;;1.17;;
19547;SDS011;9919;58.014;11.826;2023-02-14T15:03:28;0.70;;;0.70;;
19547;SDS011;9919;58.014;11.826;2023-02-14T15:05:32;3.30;;;0.90;;
19547;SDS011;9919;58.014;11.826;2023-02-14T15:07:35;1.13;;;0.98;;
19547;SDS011;9919;58.014;11.826;2023-02-14T15:09:36;0.80;;;0.80;;
19547;SDS011;9919;58.014;11.826;2023-02-14T15:11:39;0.98;;;0.98;;
19547;SDS011;9919;58.014;11.826;2023-02-14T15:14:01;1.05;;;0.82;;
19547;SDS011;9919;58.014;11.826;2023-02-14T15:16:08;2.60;;;1.38;;
19547;SDS011;9919;58.014;11.826;2023-02-14T15:18:10;1.52;;;0.98;;
19547;SDS011;9919;58.014;11.826;2023-02-14T15:20:13;0.90;;;0.90;;
19547;SDS011;9919;58.014;11.826;2023-02-14T15:24:21;0.95;;;0.95;;
19547;SDS011;9919;58.014;11.826;2023-02-14T15:26:31;1.10;;;1.10;;
19547;SDS011;9919;58.014;11.826;2023-02-14T15:28:34;1.20;;;1.00;;
19547;SDS011;9919;58.014;11.826;2023-02-14T15:30:37;1.38;;;1.13;;
19547;SDS011;9919;58.014;11.826;2023-02-14T15:32:42;0.75;;;0.70;;
19547;SDS011;9919;58.014;11.826;2023-02-14T15:34:45;0.82;;;0.82;;
19547;SDS011;9919;58.014;11.826;2023-02-14T15:36:47;4.05;;;0.90;;
19547;SDS011;9919;58.014;11.826;2023-02-14T15:38:52;0.90;;;0.90;;
19547;SDS011;9919;58.014;11.826;2023-02-14T15:40:53;1.08;;;0.75;;
19547;SDS011;9919;58.014;11.826;2023-02-14T15:42:55;1.45;;;1.20;;
19547;SDS011;9919;58.014;11.826;2023-02-14T15:45:22;0.70;;;0.60;;
19547;SDS011;9919;58.014;11.826;2023-02-14T15:47:29;1.77;;;1.50;;
19547;SDS011;9919;58.014;11.826;2023-02-14T15:49:32;1.10;;;1.00;;
19547;SDS011;9919;58.014;11.826;2023-02-14T15:51:35;1.00;;;1.00;;
19547;SDS011;9919;58.014;11.826;2023-02-14T15:53:39;2.17;;;1.20;;
19547;SDS011;9919;58.014;11.826;2023-02-14T15:55:42;1.27;;;1.20;;
19547;SDS011;9919;58.014;11.826;2023-02-14T15:57:44;6.32;;;1.20;;
19547;SDS011;9919;58.014;11.826;2023-02-14T15:59:54;1.27;;;0.85;;
19547;SDS011;9919;58.014;11.826;2023-02-14T16:04:00;0.95;;;0.95;;
19547;SDS011;9919;58.014;11.826;2023-02-14T16:06:03;0.80;;;0.80;;
19547;SDS011;9919;58.014;11.826;2023-02-14T16:08:26;1.77;;;1.15;;
19547;SDS011;9919;58.014;11.826;2023-02-14T16:10:34;1.08;;;1.08;;
19547;SDS011;9919;58.014;11.826;2023-02-14T16:12:39;2.97;;;1.13;;
19547;SDS011;9919;58.014;11.826;2023-02-14T16:14:41;1.13;;;1.13;;
19547;SDS011;9919;58.014;11.826;2023-02-14T16:19:02;1.65;;;1.30;;
19547;SDS011;9919;58.014;11.826;2023-02-14T16:21:09;1.00;;;1.00;;
19547;SDS011;9919;58.014;11.826;2023-02-14T16:23:19;1.15;;;1.08;;
19547;SDS011;9919;58.014;11.826;2023-02-14T16:25:27;0.93;;;0.93;;
19547;SDS011;9919;58.014;11.826;2023-02-14T16:27:28;3.80;;;1.20;;
19547;SDS011;9919;58.014;11.826;2023-02-14T16:29:30;1.10;;;1.10;;
19547;SDS011;9919;58.014;11.826;2023-02-14T16:31:35;1.20;;;1.10;;
19547;SDS011;9919;58.014;11.826;2023-02-14T16:33:42;1.00;;;1.00;;
19547;SDS011;9919;58.014;11.826;2023-02-14T16:35:43;1.00;;;1.00;;
19547;SDS011;9919;58.014;11.826;2023-02-14T16:37:45;2.70;;;0.90;;
19547;SDS011;9919;58.014;11.826;2023-02-14T16:39:48;1.92;;;1.30;;
19547;SDS011;9919;58.014;11.826;2023-02-14T16:41:50;2.08;;;1.75;;
19547;SDS011;9919;58.014;11.826;2023-02-14T16:43:53;1.17;;;1.08;;
19547;SDS011;9919;58.014;11.826;2023-02-14T16:45:55;3.38;;;1.48;;
19547;SDS011;9919;58.014;11.826;2023-02-14T16:47:57;1.17;;;1.17;;
19547;SDS011;9919;58.014;11.826;2023-02-14T16:49:58;3.08;;;1.20;;
19547;SDS011;9919;58.014;11.826;2023-02-14T16:52:00;1.25;;;1.13;;
19547;SDS011;9919;58.014;11.826;2023-02-14T16:54:03;1.70;;;1.25;;
19547;SDS011;9919;58.014;11.826;2023-02-14T16:56:05;1.45;;;1.35;;
19547;SDS011;9919;58.014;11.826;2023-02-14T16:58:12;1.48;;;1.33;;
19547;SDS011;9919;58.014;11.826;2023-02-14T17:00:14;1.10;;;1.00;;
19547;SDS011;9919;58.014;11.826;2023-02-14T17:02:16;1.30;;;1.20;;
19547;SDS011;9919;58.014;11.826;2023-02-14T17:04:18;2.35;;;1.10;;
19547;SDS011;9919;58.014;11.826;2023-02-14T17:06:20;1.00;;;1.00;;
19547;SDS011;9919;58.014;11.826;2023-02-14T17:08:24;1.20;;;1.13;;
19547;SDS011;9919;58.014;11.826;2023-02-14T17:10:26;1.30;;;1.20;;
19547;SDS011;9919;58.014;11.826;2023-02-14T17:12:32;1.25;;;1.15;;
19547;SDS011;9919;58.014;11.826;2023-02-14T17:14:36;1.83;;;1.40;;
19547;SDS011;9919;58.014;11.826;2023-02-14T17:16:38;1.75;;;1.42;;
19547;SDS011;9919;58.014;11.826;2023-02-14T17:18:40;1.33;;;1.27;;
19547;SDS011;9919;58.014;11.826;2023-02-14T17:20:46;2.63;;;1.85;;
19547;SDS011;9919;58.014;11.826;2023-02-14T17:22:49;1.50;;;1.40;;
19547;SDS011;9919;58.014;11.826;2023-02-14T17:24:50;2.03;;;1.35;;
19547;SDS011;9919;58.014;11.826;2023-02-14T17:26:52;1.13;;;1.02;;
19547;SDS011;9919;58.014;11.826;2023-02-14T17:28:53;1.33;;;1.23;;
19547;SDS011;9919;58.014;11.826;2023-02-14T17:30:55;2.00;;;1.33;;
19547;SDS011;9919;58.014;11.826;2023-02-14T17:32:56;1.10;;;0.75;;
19547;SDS011;9919;58.014;11.826;2023-02-14T17:34:57;0.95;;;0.95;;
19547;SDS011;9919;58.014;11.826;2023-02-14T17:37:02;1.85;;;1.63;;
19547;SDS011;9919;58.014;11.826;2023-02-14T17:39:04;1.30;;;1.30;;
19547;SDS011;9919;58.014;11.826;2023-02-14T17:43:17;1.35;;;1.25;;
19547;SDS011;9919;58.014;11.826;2023-02-14T17:45:18;1.30;;;1.30;;
19547;SDS011;9919;58.014;11.826;2023-02-14T17:47:21;1.95;;;1.17;;
19547;SDS011;9919;58.014;11.826;2023-02-14T17:49:22;1.88;;;1.70;;
19547;SDS011;9919;58.014;11.826;2023-02-14T17:51:24;1.48;;;1.38;;
19547;SDS011;9919;58.014;11.826;2023-02-14T17:53:25;1.33;;;1.20;;
19547;SDS011;9919;58.014;11.826;2023-02-14T17:55:26;1.70;;;1.27;;
19547;SDS011;9919;58.014;11.826;2023-02-14T17:57:28;1.48;;;1.13;;
19547;SDS011;9919;58.014;11.826;2023-02-14T17:59:30;1.75;;;1.55;;
19547;SDS011;9919;58.014;11.826;2023-02-14T18:01:32;1.60;;;1.50;;
19547;SDS011;9919;58.014;11.826;2023-02-14T18:03:35;1.63;;;1.30;;
19547;SDS011;9919;58.014;11.826;2023-02-14T18:05:37;1.48;;;1.30;;
19547;SDS011;9919;58.014;11.826;2023-02-14T18:07:39;1.60;;;1.50;;
19547;SDS011;9919;58.014;11.826;2023-02-14T18:09:40;1.25;;;0.98;;
19547;SDS011;9919;58.014;11.826;2023-02-14T18:11:42;1.52;;;1.42;;
19547;SDS011;9919;58.014;11.826;2023-02-14T18:13:43;1.65;;;1.55;;
19547;SDS011;9919;58.014;11.826;2023-02-14T18:15:45;2.15;;;1.33;;
19547;SDS011;9919;58.014;11.826;2023-02-14T18:17:47;2.22;;;1.50;;
19547;SDS011;9919;58.014;11.826;2023-02-14T18:19:49;1.27;;;1.17;;
19547;SDS011;9919;58.014;11.826;2023-02-14T18:21:52;1.38;;;1.27;;
19547;SDS011;9919;58.014;11.826;2023-02-14T18:23:53;3.95;;;1.73;;
19547;SDS011;9919;58.014;11.826;2023-02-14T18:25:55;1.75;;;1.65;;
19547;SDS011;9919;58.014;11.826;2023-02-14T18:27:57;1.67;;;1.55;;
19547;SDS011;9919;58.014;11.826;2023-02-14T18:29:59;1.55;;;1.45;;
19547;SDS011;9919;58.014;11.826;2023-02-14T18:32:00;1.40;;;1.30;;
19547;SDS011;9919;58.014;11.826;2023-02-14T18:34:03;1.30;;;1.30;;
19547;SDS011;9919;58.014;11.826;2023-02-14T18:36:08;1.45;;;1.35;;
19547;SDS011;9919;58.014;11.826;2023-02-14T18:38:11;1.50;;;1.40;;
19547;SDS011;9919;58.014;11.826;2023-02-14T18:40:13;1.52;;;1.35;;
19547;SDS011;9919;58.014;11.826;2023-02-14T18:42:19;1.60;;;1.50;;
19547;SDS011;9919;58.014;11.826;2023-02-14T18:44:20;1.13;;;1.13;;
19547;SDS011;9919;58.014;11.826;2023-02-14T18:46:23;1.17;;;1.13;;
19547;SDS011;9919;58.014;11.826;2023-02-14T18:48:26;1.33;;;1.20;;
19547;SDS011;9919;58.014;11.826;2023-02-14T18:50:28;1.25;;;1.15;;
19547;SDS011;9919;58.014;11.826;2023-02-14T18:52:30;1.50;;;1.40;;
19547;SDS011;9919;58.014;11.826;2023-02-14T18:54:31;1.60;;;1.50;;
19547;SDS011;9919;58.014;11.826;2023-02-14T18:56:33;1.20;;;1.13;;
19547;SDS011;9919;58.014;11.826;2023-02-14T18:58:37;1.65;;;1.40;;
19547;SDS011;9919;58.014;11.826;2023-02-14T19:00:39;1.73;;;1.60;;
19547;SDS011;9919;58.014;11.826;2023-02-14T19:02:40;1.63;;;1.45;;
19547;SDS011;9919;58.014;11.826;2023-02-14T19:04:42;2.80;;;1.45;;
19547;SDS011;9919;58.014;11.826;2023-02-14T19:06:43;2.67;;;1.50;;
19547;SDS011;9919;58.014;11.826;2023-02-14T19:08:45;2.35;;;1.70;;
19547;SDS011;9919;58.014;11.826;2023-02-14T19:10:47;1.95;;;1.83;;
19547;SDS011;9919;58.014;11.826;2023-02-14T19:12:48;1.90;;;1.17;;
19547;SDS011;9919;58.014;11.826;2023-02-14T19:14:51;1.77;;;1.30;;
19547;SDS011;9919;58.014;11.826;2023-02-14T19:16:52;1.20;;;1.10;;
19547;SDS011;9919;58.014;11.826;2023-02-14T19:18:54;1.40;;;1.30;;
19547;SDS011;9919;58.014;11.826;2023-02-14T19:20:56;1.50;;;1.40;;
19547;SDS011;9919;58.014;11.826;2023-02-14T19:23:06;1.25;;;1.15;;
19547;SDS011;9919;58.014;11.826;2023-02-14T19:25:08;2.30;;;2.10;;
19547;SDS011;9919;58.014;11.826;2023-02-14T19:27:10;2.97;;;1.73;;
19547;SDS011;9919;58.014;11.826;2023-02-14T19:29:12;1.80;;;1.58;;
19547;SDS011;9919;58.014;11.826;2023-02-14T19:31:15;1.40;;;1.30;;
19547;SDS011;9919;58.014;11.826;2023-02-14T19:33:16;3.80;;;1.63;;
19547;SDS011;9919;58.014;11.826;2023-02-14T19:35:18;1.88;;;1.77;;
19547;SDS011;9919;58.014;11.826;2023-02-14T19:37:20;1.45;;;1.40;;
19547;SDS011;9919;58.014;11.826;2023-02-14T19:39:21;1.88;;;1.40;;
19547;SDS011;9919;58.014;11.826;2023-02-14T19:41:25;1.95;;;1.63;;
19547;SDS011;9919;58.014;11.826;2023-02-14T19:43:29;4.75;;;1.58;;
19547;SDS011;9919;58.014;11.826;2023-02-14T19:45:30;1.95;;;1.42;;
19547;SDS011;9919;58.014;11.826;2023-02-14T19:47:31;1.23;;;1.17;;
19547;SDS011;9919;58.014;11.826;2023-02-14T19:49:33;2.00;;;1.63;;
19547;SDS011;9919;58.014;11.826;2023-02-14T19:51:35;1.30;;;1.20;;
19547;SDS011;9919;58.014;11.826;2023-02-14T19:53:36;1.50;;;1.40;;
19547;SDS011;9919;58.014;11.826;2023-02-14T19:55:37;1.33;;;1.23;;
19547;SDS011;9919;58.014;11.826;2023-02-14T19:57:38;1.30;;;1.20;;
19547;SDS011;9919;58.014;11.826;2023-02-14T19:59:41;1.40;;;1.30;;
19547;SDS011;9919;58.014;11.826;2023-02-14T20:01:43;1.40;;;1.30;;
19547;SDS011;9919;58.014;11.826;2023-02-14T20:03:45;1.38;;;1.27;;
19547;SDS011;9919;58.014;11.826;2023-02-14T20:05:47;1.40;;;1.30;;
19547;SDS011;9919;58.014;11.826;2023-02-14T20:07:51;1.30;;;1.20;;
19547;SDS011;9919;58.014;11.826;2023-02-14T20:09:55;1.42;;;1.20;;
19547;SDS011;9919;58.014;11.826;2023-02-14T20:11:57;1.40;;;1.30;;
19547;SDS011;9919;58.014;11.826;2023-02-14T20:14:00;1.60;;;1.50;;
19547;SDS011;9919;58.014;11.826;2023-02-14T20:16:02;2.03;;;1.80;;
19547;SDS011;9919;58.014;11.826;2023-02-14T20:18:04;1.38;;;1.30;;
19547;SDS011;9919;58.014;11.826;2023-02-14T20:20:06;2.00;;;1.77;;
19547;SDS011;9919;58.014;11.826;2023-02-14T20:22:12;2.35;;;1.20;;
19547;SDS011;9919;58.014;11.826;2023-02-14T20:24:16;1.30;;;1.25;;
19547;SDS011;9919;58.014;11.826;2023-02-14T20:26:19;1.92;;;1.42;;
19547;SDS011;9919;58.014;11.826;2023-02-14T20:28:20;2.17;;;1.50;;
19547;SDS011;9919;58.014;11.826;2023-02-14T20:30:21;2.15;;;1.42;;
19547;SDS011;9919;58.014;11.826;2023-02-14T20:32:23;1.35;;;1.25;;
19547;SDS011;9919;58.014;11.826;2023-02-14T20:34:25;1.60;;;1.50;;
19547;SDS011;9919;58.014;11.826;2023-02-14T20:36:27;3.22;;;2.15;;
19547;SDS011;9919;58.014;11.826;2023-02-14T20:38:29;2.90;;;2.15;;
19547;SDS011;9919;58.014;11.826;2023-02-14T20:40:38;1.75;;;1.50;;
19547;SDS011;9919;58.014;11.826;2023-02-14T20:42:41;1.70;;;1.60;;
19547;SDS011;9919;58.014;11.826;2023-02-14T20:44:42;1.92;;;1.65;;
19547;SDS011;9919;58.014;11.826;2023-02-14T20:46:47;2.25;;;2.00;;
19547;SDS011;9919;58.014;11.826;2023-02-14T20:48:50;2.47;;;1.67;;
19547;SDS011;9919;58.014;11.826;2023-02-14T20:50:53;2.72;;;2.17;;
19547;SDS011;9919;58.014;11.826;2023-02-14T20:52:54;2.85;;;1.90;;
19547;SDS011;9919;58.014;11.826;2023-02-14T20:54:56;2.13;;;1.92;;
19547;SDS011;9919;58.014;11.826;2023-02-14T20:56:57;2.40;;;1.90;;
19547;SDS011;9919;58.014;11.826;2023-02-14T20:58:59;1.85;;;1.58;;
19547;SDS011;9919;58.014;11.826;2023-02-14T21:01:11;2.67;;;1.75;;
19547;SDS011;9919;58.014;11.826;2023-02-14T21:03:14;1.98;;;1.88;;
19547;SDS011;9919;58.014;11.826;2023-02-14T21:05:15;3.38;;;1.85;;
19547;SDS011;9919;58.014;11.826;2023-02-14T21:07:17;2.08;;;1.70;;
19547;SDS011;9919;58.014;11.826;2023-02-14T21:09:18;1.92;;;1.70;;
19547;SDS011;9919;58.014;11.826;2023-02-14T21:11:20;1.67;;;1.55;;
19547;SDS011;9919;58.014;11.826;2023-02-14T21:13:23;2.10;;;1.83;;
19547;SDS011;9919;58.014;11.826;2023-02-14T21:15:24;2.03;;;1.63;;
19547;SDS011;9919;58.014;11.826;2023-02-14T21:17:26;2.45;;;1.67;;
19547;SDS011;9919;58.014;11.826;2023-02-14T21:19:27;3.45;;;1.95;;
19547;SDS011;9919;58.014;11.826;2023-02-14T21:21:32;2.20;;;1.45;;
19547;SDS011;9919;58.014;11.826;2023-02-14T21:23:35;2.55;;;2.03;;
19547;SDS011;9919;58.014;11.826;2023-02-14T21:25:37;2.55;;;1.90;;
19547;SDS011;9919;58.014;11.826;2023-02-14T21:27:39;2.42;;;2.22;;
19547;SDS011;9919;58.014;11.826;2023-02-14T21:29:41;2.03;;;1.60;;
19547;SDS011;9919;58.014;11.826;2023-02-14T21:31:42;2.75;;;1.80;;
19547;SDS011;9919;58.014;11.826;2023-02-14T21:33:44;2.08;;;1.73;;
19547;SDS011;9919;58.014;11.826;2023-02-14T21:35:48;1.75;;;1.38;;
19547;SDS011;9919;58.014;11.826;2023-02-14T21:37:49;1.77;;;1.67;;
19547;SDS011;9919;58.014;11.826;2023-02-14T21:39:51;1.30;;;1.20;;
19547;SDS011;9919;58.014;11.826;2023-02-14T21:41:52;1.58;;;1.48;;
19547;SDS011;9919;58.014;11.826;2023-02-14T21:43:55;1.73;;;1.63;;
19547;SDS011;9919;58.014;11.826;2023-02-14T21:45:58;1.70;;;1.60;;
19547;SDS011;9919;58.014;11.826;2023-02-14T21:48:01;2.33;;;1.50;;
19547;SDS011;9919;58.014;11.826;2023-02-14T21:50:21;2.08;;;1.45;;
19547;SDS011;9919;58.014;11.826;2023-02-14T21:52:31;1.58;;;1.30;;
19547;SDS011;9919;58.014;11.826;2023-02-14T21:54:33;1.65;;;1.55;;
19547;SDS011;9919;58.014;11.826;2023-02-14T21:56:35;1.63;;;1.25;;
19547;SDS011;9919;58.014;11.826;2023-02-14T21:58:37;1.80;;;1.40;;
19547;SDS011;9919;58.014;11.826;2023-02-14T22:00:39;2.13;;;1.83;;
19547;SDS011;9919;58.014;11.826;2023-02-14T22:02:43;1.75;;;1.63;;
19547;SDS011;9919;58.014;11.826;2023-02-14T22:04:44;1.90;;;1.80;;
19547;SDS011;9919;58.014;11.826;2023-02-14T22:06:45;1.88;;;1.67;;
19547;SDS011;9919;58.014;11.826;2023-02-14T22:08:50;1.33;;;1.23;;
19547;SDS011;9919;58.014;11.826;2023-02-14T22:10:54;1.60;;;1.50;;
19547;SDS011;9919;58.014;11.826;2023-02-14T22:12:56;1.73;;;1.63;;
19547;SDS011;9919;58.014;11.826;2023-02-14T22:14:57;1.30;;;1.20;;
19547;SDS011;9919;58.014;11.826;2023-02-14T22:17:00;1.77;;;1.40;;
19547;SDS011;9919;58.014;11.826;2023-02-14T22:19:02;1.63;;;1.52;;
19547;SDS011;9919;58.014;11.826;2023-02-14T22:21:05;2.95;;;1.80;;
19547;SDS011;9919;58.014;11.826;2023-02-14T22:23:08;1.90;;;1.60;;
19547;SDS011;9919;58.014;11.826;2023-02-14T22:25:10;1.30;;;1.23;;
19547;SDS011;9919;58.014;11.826;2023-02-14T22:27:12;1.70;;;1.60;;
19547;SDS011;9919;58.014;11.826;2023-02-14T22:29:15;1.83;;;1.70;;
19547;SDS011;9919;58.014;11.826;2023-02-14T22:31:17;2.00;;;1.58;;
19547;SDS011;9919;58.014;11.826;2023-02-14T22:33:19;1.70;;;1.60;;
19547;SDS011;9919;58.014;11.826;2023-02-14T22:35:22;1.35;;;1.25;;
19547;SDS011;9919;58.014;11.826;2023-02-14T22:37:23;1.92;;;1.60;;
19547;SDS011;9919;58.014;11.826;2023-02-14T22:39:25;1.25;;;1.20;;
19547;SDS011;9919;58.014;11.826;2023-02-14T22:41:26;1.77;;;1.50;;
19547;SDS011;9919;58.014;11.826;2023-02-14T22:43:27;1.50;;;1.40;;
19547;SDS011;9919;58.014;11.826;2023-02-14T22:45:29;1.95;;;1.55;;
19547;SDS011;9919;58.014;11.826;2023-02-14T22:47:32;1.75;;;1.50;;
19547;SDS011;9919;58.014;11.826;2023-02-14T22:49:33;1.08;;;1.08;;
19547;SDS011;9919;58.014;11.826;2023-02-14T22:51:36;2.50;;;1.45;;
19547;SDS011;9919;58.014;11.826;2023-02-14T22:53:38;2.25;;;1.95;;
19547;SDS011;9919;58.014;11.826;2023-02-14T22:55:40;1.33;;;1.23;;
19547;SDS011;9919;58.014;11.826;2023-02-14T22:57:41;1.65;;;1.55;;
19547;SDS011;9919;58.014;11.826;2023-02-14T22:59:43;1.80;;;1.63;;
19547;SDS011;9919;58.014;11.826;2023-02-14T23:01:44;2.25;;;1.90;;
19547;SDS011;9919;58.014;11.826;2023-02-14T23:03:46;1.60;;;1.50;;
19547;SDS011;9919;58.014;11.826;2023-02-14T23:05:55;1.98;;;1.80;;
19547;SDS011;9919;58.014;11.826;2023-02-14T23:07:56;1.88;;;1.58;;
19547;SDS011;9919;58.014;11.826;2023-02-14T23:09:58;1.77;;;1.60;;
19547;SDS011;9919;58.014;11.826;2023-02-14T23:12:00;1.35;;;1.25;;
19547;SDS011;9919;58.014;11.826;2023-02-14T23:14:01;1.50;;;1.40;;
19547;SDS011;9919;58.014;11.826;2023-02-14T23:16:21;1.42;;;1.33;;
19547;SDS011;9919;58.014;11.826;2023-02-14T23:18:41;1.50;;;1.40;;
19547;SDS011;9919;58.014;11.826;2023-02-14T23:21:01;2.03;;;1.83;;
19547;SDS011;9919;58.014;11.826;2023-02-14T23:23:21;1.55;;;1.45;;
19547;SDS011;9919;58.014;11.826;2023-02-14T23:25:24;1.70;;;1.60;;
19547;SDS011;9919;58.014;11.826;2023-02-14T23:27:33;1.60;;;1.50;;
19547;SDS011;9919;58.014;11.826;2023-02-14T23:29:36;1.75;;;1.50;;
19547;SDS011;9919;58.014;11.826;2023-02-14T23:31:37;1.55;;;1.30;;
19547;SDS011;9919;58.014;11.826;2023-02-14T23:33:39;1.70;;;1.50;;
19547;SDS011;9919;58.014;11.826;2023-02-14T23:35:41;1.30;;;1.20;;
19547;SDS011;9919;58.014;11.826;2023-02-14T23:37:43;1.95;;;1.40;;
19547;SDS011;9919;58.014;11.826;2023-02-14T23:39:44;1.50;;;1.40;;
19547;SDS011;9919;58.014;11.826;2023-02-14T23:41:46;2.35;;;2.08;;
19547;SDS011;9919;58.014;11.826;2023-02-14T23:43:47;2.00;;;1.85;;
19547;SDS011;9919;58.014;11.826;2023-02-14T23:45:50;1.70;;;1.60;;
19547;SDS011;9919;58.014;11.826;2023-02-14T23:47:51;1.92;;;1.27;;
19547;SDS011;9919;58.014;11.826;2023-02-14T23:49:53;1.60;;;1.50;;
19547;SDS011;9919;58.014;11.826;2023-02-14T23:51:54;2.08;;;1.70;;
19547;SDS011;9919;58.014;11.826;2023-02-14T23:53:55;1.80;;;1.45;;
19547;SDS011;9919;58.014;11.826;2023-02-14T23:56:00;1.50;;;1.40;;
19547;SDS011;9919;58.014;11.826;2023-02-14T23:58:02;1.40;;;1.30;;
